sensor_id;sensor_type;location;lat;lon;timestamp;pressure;altitude;pressure_sealevel;temperature;humidity
20027;BME280;10174;42.688;23.344;2023-02-10T00:02:21;97133.88;;;-5.87;66.34
20027;BME280;10174;42.688;23.344;2023-02-10T00:04:46;97128.88;;;-5.91;65.79
20027;BME280;10174;42.688;23.344;2023-02-10T00:07:11;97009.25;;;-6.82;66.38
20027;BME280;10174;42.688;23.344;2023-02-10T00:09:37;97127.69;;;-6.09;66.71
20027;BME280;10174;42.688;23.344;2023-02-10T00:12:02;97107.44;;;-6.18;66.59
20027;BME280;10174;42.688;23.344;2023-02-10T00:14:28;97103.19;;;-6.32;66.61
20027;BME280;10174;42.688;23.344;2023-02-10T00:16:55;97124.66;;;-6.16;67.13
20027;BME280;10174;42.688;23.344;2023-02-10T00:19:24;97134.19;;;-6.15;66.83
20027;BME280;10174;42.688;23.344;2023-02-10T00:21:50;97132.88;;;-6.20;67.18
20027;BME280;10174;42.688;23.344;2023-02-10T00:24:16;97108.44;;;-6.32;67.29
20027;BME280;10174;42.688;23.344;2023-02-10T00:26:42;97134.25;;;-6.28;67.51
20027;BME280;10174;42.688;23.344;2023-02-10T00:29:07;97118.66;;;-6.29;67.42
20027;BME280;10174;42.688;23.344;2023-02-10T00:31:33;97129.66;;;-6.24;67.52
20027;BME280;10174;42.688;23.344;2023-02-10T00:33:58;97124.53;;;-6.25;67.62
20027;BME280;10174;42.688;23.344;2023-02-10T00:36:24;97087.38;;;-6.42;67.45
20027;BME280;10174;42.688;23.344;2023-02-10T00:38:50;97100.22;;;-6.39;67.85
20027;BME280;10174;42.688;23.344;2023-02-10T00:41:18;97120.47;;;-6.30;68.01
20027;BME280;10174;42.688;23.344;2023-02-10T00:43:43;97117.59;;;-6.38;68.36
20027;BME280;10174;42.688;23.344;2023-02-10T00:46:10;97116.63;;;-6.37;68.22
20027;BME280;10174;42.688;23.344;2023-02-10T00:48:35;97108.19;;;-6.40;68.80
20027;BME280;10174;42.688;23.344;2023-02-10T00:51:01;97080.19;;;-6.51;68.74
20027;BME280;10174;42.688;23.344;2023-02-10T00:53:27;97105.31;;;-6.49;68.45
20027;BME280;10174;42.688;23.344;2023-02-10T00:55:52;97080.28;;;-6.64;68.35
20027;BME280;10174;42.688;23.344;2023-02-10T00:58:18;97101.25;;;-6.53;68.41
20027;BME280;10174;42.688;23.344;2023-02-10T01:00:43;97087.28;;;-6.65;68.14
20027;BME280;10174;42.688;23.344;2023-02-10T01:03:10;97101.09;;;-6.63;68.76
20027;BME280;10174;42.688;23.344;2023-02-10T01:05:36;97093.97;;;-6.60;69.13
20027;BME280;10174;42.688;23.344;2023-02-10T01:08:02;97051.41;;;-6.87;68.80
20027;BME280;10174;42.688;23.344;2023-02-10T01:10:27;97096.56;;;-6.60;69.32
20027;BME280;10174;42.688;23.344;2023-02-10T01:12:53;97062.84;;;-6.76;68.96
20027;BME280;10174;42.688;23.344;2023-02-10T01:15:18;97102.81;;;-6.50;68.81
20027;BME280;10174;42.688;23.344;2023-02-10T01:17:45;97095.28;;;-6.55;69.04
20027;BME280;10174;42.688;23.344;2023-02-10T01:20:10;97094.91;;;-6.62;69.41
20027;BME280;10174;42.688;23.344;2023-02-10T01:22:36;97010.44;;;-7.10;69.62
20027;BME280;10174;42.688;23.344;2023-02-10T01:25:02;97080.50;;;-6.67;69.87
20027;BME280;10174;42.688;23.344;2023-02-10T01:27:28;97094.66;;;-6.58;69.53
20027;BME280;10174;42.688;23.344;2023-02-10T01:29:54;97084.19;;;-6.70;69.73
20027;BME280;10174;42.688;23.344;2023-02-10T01:32:19;96956.69;;;-7.50;69.80
20027;BME280;10174;42.688;23.344;2023-02-10T01:34:45;97086.59;;;-6.80;70.15
20027;BME280;10174;42.688;23.344;2023-02-10T01:37:10;97083.38;;;-6.83;70.87
20027;BME280;10174;42.688;23.344;2023-02-10T01:39:36;96980.47;;;-7.42;71.03
20027;BME280;10174;42.688;23.344;2023-02-10T01:42:02;97081.25;;;-6.78;71.13
20027;BME280;10174;42.688;23.344;2023-02-10T01:46:55;97072.97;;;-6.72;70.47
20027;BME280;10174;42.688;23.344;2023-02-10T01:49:26;97067.38;;;-6.78;70.62
20027;BME280;10174;42.688;23.344;2023-02-10T01:52:06;97074.38;;;-6.79;70.58
20027;BME280;10174;42.688;23.344;2023-02-10T01:54:55;97057.97;;;-6.81;70.60
20027;BME280;10174;42.688;23.344;2023-02-10T01:57:21;97064.63;;;-6.77;70.56
20027;BME280;10174;42.688;23.344;2023-02-10T01:59:47;97064.75;;;-6.78;70.26
20027;BME280;10174;42.688;23.344;2023-02-10T02:02:13;97054.41;;;-6.80;70.16
20027;BME280;10174;42.688;23.344;2023-02-10T02:04:49;96989.16;;;-7.17;70.01
20027;BME280;10174;42.688;23.344;2023-02-10T02:07:15;97049.06;;;-6.78;70.26
20027;BME280;10174;42.688;23.344;2023-02-10T02:09:42;97017.72;;;-7.03;70.42
20027;BME280;10174;42.688;23.344;2023-02-10T02:17:50;97027.59;;;-6.71;70.33
20027;BME280;10174;42.688;23.344;2023-02-10T02:20:35;97025.47;;;-6.66;70.30
20027;BME280;10174;42.688;23.344;2023-02-10T02:36:59;97004.81;;;-7.17;71.31
20027;BME280;10174;42.688;23.344;2023-02-10T02:39:27;97017.56;;;-7.12;71.41
20027;BME280;10174;42.688;23.344;2023-02-10T02:42:15;97026.75;;;-7.07;71.39
20027;BME280;10174;42.688;23.344;2023-02-10T02:44:43;97029.34;;;-7.07;71.80
20027;BME280;10174;42.688;23.344;2023-02-10T02:50:25;97029.69;;;-7.11;72.60
20027;BME280;10174;42.688;23.344;2023-02-10T02:53:13;97030.06;;;-7.05;73.03
20027;BME280;10174;42.688;23.344;2023-02-10T03:01:07;97004.56;;;-7.62;72.97
20027;BME280;10174;42.688;23.344;2023-02-10T03:03:35;97030.09;;;-7.42;73.18
20027;BME280;10174;42.688;23.344;2023-02-10T03:06:02;97025.94;;;-7.20;72.51
20027;BME280;10174;42.688;23.344;2023-02-10T03:08:33;97028.03;;;-7.25;72.58
20027;BME280;10174;42.688;23.344;2023-02-10T03:10:59;97018.66;;;-7.28;72.78
20027;BME280;10174;42.688;23.344;2023-02-10T03:13:25;96901.09;;;-8.00;72.10
20027;BME280;10174;42.688;23.344;2023-02-10T03:15:50;97034.00;;;-7.23;72.15
20027;BME280;10174;42.688;23.344;2023-02-10T03:18:15;97029.94;;;-7.27;71.88
20027;BME280;10174;42.688;23.344;2023-02-10T03:20:42;97028.25;;;-7.28;71.75
20027;BME280;10174;42.688;23.344;2023-02-10T03:23:09;96998.69;;;-7.53;71.76
20027;BME280;10174;42.688;23.344;2023-02-10T03:25:34;97036.31;;;-7.31;71.71
20027;BME280;10174;42.688;23.344;2023-02-10T03:27:59;97042.88;;;-7.26;71.40
20027;BME280;10174;42.688;23.344;2023-02-10T03:30:25;97015.38;;;-7.43;71.17
20027;BME280;10174;42.688;23.344;2023-02-10T03:32:50;97022.41;;;-7.56;71.63
20027;BME280;10174;42.688;23.344;2023-02-10T03:35:18;97011.94;;;-7.56;71.38
20027;BME280;10174;42.688;23.344;2023-02-10T03:37:44;97034.78;;;-7.34;71.29
20027;BME280;10174;42.688;23.344;2023-02-10T03:40:10;96905.00;;;-8.19;71.42
20027;BME280;10174;42.688;23.344;2023-02-10T03:42:35;97026.84;;;-7.45;71.80
20027;BME280;10174;42.688;23.344;2023-02-10T03:45:01;97032.53;;;-7.52;71.96
20027;BME280;10174;42.688;23.344;2023-02-10T03:47:26;96979.16;;;-7.84;72.31
20027;BME280;10174;42.688;23.344;2023-02-10T03:49:52;97010.84;;;-7.65;72.28
20027;BME280;10174;42.688;23.344;2023-02-10T03:52:17;97019.63;;;-7.66;72.86
20027;BME280;10174;42.688;23.344;2023-02-10T03:54:43;97023.03;;;-7.65;72.58
20027;BME280;10174;42.688;23.344;2023-02-10T03:57:10;97018.25;;;-7.59;72.50
20027;BME280;10174;42.688;23.344;2023-02-10T03:59:36;97008.94;;;-7.63;72.87
20027;BME280;10174;42.688;23.344;2023-02-10T04:02:02;97009.44;;;-7.58;72.64
20027;BME280;10174;42.688;23.344;2023-02-10T04:04:28;96995.19;;;-7.78;72.47
20027;BME280;10174;42.688;23.344;2023-02-10T04:06:53;97002.09;;;-7.77;73.05
20027;BME280;10174;42.688;23.344;2023-02-10T04:09:19;97011.69;;;-7.77;72.97
20027;BME280;10174;42.688;23.344;2023-02-10T04:11:45;97002.53;;;-7.83;73.54
20027;BME280;10174;42.688;23.344;2023-02-10T04:14:10;97005.75;;;-7.79;73.11
20027;BME280;10174;42.688;23.344;2023-02-10T04:16:36;96992.53;;;-8.02;73.47
20027;BME280;10174;42.688;23.344;2023-02-10T04:19:02;96984.38;;;-7.97;74.03
20027;BME280;10174;42.688;23.344;2023-02-10T04:21:28;97000.13;;;-7.86;73.70
20027;BME280;10174;42.688;23.344;2023-02-10T04:23:54;97004.81;;;-7.91;73.56
20027;BME280;10174;42.688;23.344;2023-02-10T04:26:21;97010.56;;;-7.86;73.84
20027;BME280;10174;42.688;23.344;2023-02-10T04:28:48;96985.44;;;-8.00;73.81
20027;BME280;10174;42.688;23.344;2023-02-10T04:31:14;97016.91;;;-7.77;73.64
20027;BME280;10174;42.688;23.344;2023-02-10T04:33:40;97005.84;;;-7.81;73.70
20027;BME280;10174;42.688;23.344;2023-02-10T04:36:06;97008.69;;;-7.84;73.72
20027;BME280;10174;42.688;23.344;2023-02-10T04:38:32;97000.84;;;-7.84;73.58
20027;BME280;10174;42.688;23.344;2023-02-10T04:40:58;96884.25;;;-8.57;73.65
20027;BME280;10174;42.688;23.344;2023-02-10T04:43:24;97012.53;;;-7.77;73.39
20027;BME280;10174;42.688;23.344;2023-02-10T04:45:49;97014.63;;;-7.82;73.11
20027;BME280;10174;42.688;23.344;2023-02-10T04:48:15;96995.44;;;-8.07;73.80
20027;BME280;10174;42.688;23.344;2023-02-10T04:50:41;97022.22;;;-7.79;73.01
20027;BME280;10174;42.688;23.344;2023-02-10T04:53:07;97019.84;;;-7.82;72.98
20027;BME280;10174;42.688;23.344;2023-02-10T04:55:33;96989.38;;;-7.94;73.26
20027;BME280;10174;42.688;23.344;2023-02-10T04:58:00;97003.06;;;-7.91;73.16
20027;BME280;10174;42.688;23.344;2023-02-10T05:00:26;97021.13;;;-7.88;73.17
20027;BME280;10174;42.688;23.344;2023-02-10T05:02:51;97024.88;;;-7.92;73.29
20027;BME280;10174;42.688;23.344;2023-02-10T05:05:17;97011.75;;;-8.03;73.65
20027;BME280;10174;42.688;23.344;2023-02-10T05:07:43;97025.31;;;-7.98;74.02
20027;BME280;10174;42.688;23.344;2023-02-10T05:10:09;97034.69;;;-7.95;74.09
20027;BME280;10174;42.688;23.344;2023-02-10T05:12:34;97023.94;;;-8.03;74.42
20027;BME280;10174;42.688;23.344;2023-02-10T05:15:00;97041.16;;;-7.88;74.02
20027;BME280;10174;42.688;23.344;2023-02-10T05:17:26;97030.91;;;-7.91;74.21
20027;BME280;10174;42.688;23.344;2023-02-10T05:19:52;97034.50;;;-7.92;74.09
20027;BME280;10174;42.688;23.344;2023-02-10T05:22:17;97037.81;;;-7.90;74.04
20027;BME280;10174;42.688;23.344;2023-02-10T05:24:43;97041.47;;;-7.93;73.38
20027;BME280;10174;42.688;23.344;2023-02-10T05:27:08;97062.22;;;-7.91;73.55
20027;BME280;10174;42.688;23.344;2023-02-10T05:29:34;97053.91;;;-7.96;73.52
20027;BME280;10174;42.688;23.344;2023-02-10T05:32:01;97025.53;;;-8.14;73.60
20027;BME280;10174;42.688;23.344;2023-02-10T05:34:26;97069.66;;;-7.85;73.85
20027;BME280;10174;42.688;23.344;2023-02-10T05:36:52;97036.13;;;-7.91;73.06
20027;BME280;10174;42.688;23.344;2023-02-10T05:39:18;97074.75;;;-7.71;73.32
20027;BME280;10174;42.688;23.344;2023-02-10T05:41:57;97081.63;;;-7.70;73.29
20027;BME280;10174;42.688;23.344;2023-02-10T05:44:23;97082.06;;;-7.76;72.93
20027;BME280;10174;42.688;23.344;2023-02-10T05:46:50;97086.03;;;-7.70;73.02
20027;BME280;10174;42.688;23.344;2023-02-10T05:49:15;96984.41;;;-8.36;73.86
20027;BME280;10174;42.688;23.344;2023-02-10T05:51:41;97083.31;;;-7.68;73.56
20027;BME280;10174;42.688;23.344;2023-02-10T05:54:07;97082.06;;;-7.63;73.51
20027;BME280;10174;42.688;23.344;2023-02-10T05:56:33;97080.81;;;-7.70;73.27
20027;BME280;10174;42.688;23.344;2023-02-10T05:58:58;97081.13;;;-7.62;73.42
20027;BME280;10174;42.688;23.344;2023-02-10T06:01:24;97096.69;;;-7.60;73.60
20027;BME280;10174;42.688;23.344;2023-02-10T06:03:49;97069.31;;;-7.67;73.61
20027;BME280;10174;42.688;23.344;2023-02-10T06:06:15;97094.16;;;-7.49;73.47
20027;BME280;10174;42.688;23.344;2023-02-10T06:08:41;97087.69;;;-7.56;73.07
20027;BME280;10174;42.688;23.344;2023-02-10T06:11:07;97096.03;;;-7.51;73.24
20027;BME280;10174;42.688;23.344;2023-02-10T06:13:33;97100.53;;;-7.53;73.31
20027;BME280;10174;42.688;23.344;2023-02-10T06:15:58;97108.47;;;-7.42;73.10
20027;BME280;10174;42.688;23.344;2023-02-10T06:18:28;97106.06;;;-7.45;73.05
20027;BME280;10174;42.688;23.344;2023-02-10T06:20:54;97116.72;;;-7.48;72.66
20027;BME280;10174;42.688;23.344;2023-02-10T06:23:19;97096.16;;;-7.53;72.71
20027;BME280;10174;42.688;23.344;2023-02-10T06:25:46;97122.13;;;-7.38;72.27
20027;BME280;10174;42.688;23.344;2023-02-10T06:28:12;97093.53;;;-7.65;72.20
20027;BME280;10174;42.688;23.344;2023-02-10T06:30:37;97100.44;;;-7.64;72.48
20027;BME280;10174;42.688;23.344;2023-02-10T06:33:03;97115.69;;;-7.58;72.77
20027;BME280;10174;42.688;23.344;2023-02-10T06:35:29;97127.19;;;-7.48;72.78
20027;BME280;10174;42.688;23.344;2023-02-10T06:37:54;97118.16;;;-7.44;71.98
20027;BME280;10174;42.688;23.344;2023-02-10T06:40:20;97117.22;;;-7.43;72.07
20027;BME280;10174;42.688;23.344;2023-02-10T06:42:47;97102.50;;;-7.44;72.32
20027;BME280;10174;42.688;23.344;2023-02-10T06:45:12;97023.84;;;-7.89;71.45
20027;BME280;10174;42.688;23.344;2023-02-10T06:47:38;97132.75;;;-7.28;71.71
20027;BME280;10174;42.688;23.344;2023-02-10T06:50:04;97114.41;;;-7.40;71.40
20027;BME280;10174;42.688;23.344;2023-02-10T06:52:29;97122.19;;;-7.27;71.53
20027;BME280;10174;42.688;23.344;2023-02-10T06:54:56;97112.66;;;-7.15;71.12
20027;BME280;10174;42.688;23.344;2023-02-10T06:57:22;97125.59;;;-7.01;70.89
20027;BME280;10174;42.688;23.344;2023-02-10T06:59:48;97137.06;;;-6.90;70.82
20027;BME280;10174;42.688;23.344;2023-02-10T07:02:13;97143.53;;;-6.83;70.20
20027;BME280;10174;42.688;23.344;2023-02-10T07:04:39;97136.28;;;-6.80;70.06
20027;BME280;10174;42.688;23.344;2023-02-10T07:07:05;97152.38;;;-6.73;69.71
20027;BME280;10174;42.688;23.344;2023-02-10T07:09:30;97140.75;;;-6.69;69.45
20027;BME280;10174;42.688;23.344;2023-02-10T07:11:58;97124.78;;;-6.77;68.77
20027;BME280;10174;42.688;23.344;2023-02-10T07:14:23;96992.56;;;-7.41;68.77
20027;BME280;10174;42.688;23.344;2023-02-10T07:16:49;97119.19;;;-6.59;68.81
20027;BME280;10174;42.688;23.344;2023-02-10T07:19:14;97049.13;;;-7.16;69.04
20027;BME280;10174;42.688;23.344;2023-02-10T07:21:40;96995.50;;;-7.32;69.06
20027;BME280;10174;42.688;23.344;2023-02-10T07:24:06;97107.53;;;-6.55;68.43
20027;BME280;10174;42.688;23.344;2023-02-10T07:26:31;97119.28;;;-6.25;68.33
20027;BME280;10174;42.688;23.344;2023-02-10T07:28:57;97115.00;;;-6.27;68.18
20027;BME280;10174;42.688;23.344;2023-02-10T07:31:22;97113.38;;;-6.05;67.80
20027;BME280;10174;42.688;23.344;2023-02-10T07:33:48;97115.66;;;-5.89;67.21
20027;BME280;10174;42.688;23.344;2023-02-10T07:36:13;97112.81;;;-5.86;66.35
20027;BME280;10174;42.688;23.344;2023-02-10T07:38:39;96964.31;;;-6.87;66.35
20027;BME280;10174;42.688;23.344;2023-02-10T07:41:05;97113.78;;;-5.98;66.76
20027;BME280;10174;42.688;23.344;2023-02-10T07:43:31;97120.56;;;-5.84;66.82
20027;BME280;10174;42.688;23.344;2023-02-10T07:45:56;97098.03;;;-5.87;66.61
20027;BME280;10174;42.688;23.344;2023-02-10T07:48:22;97100.31;;;-5.94;66.68
20027;BME280;10174;42.688;23.344;2023-02-10T07:50:48;97114.84;;;-5.67;66.12
20027;BME280;10174;42.688;23.344;2023-02-10T07:53:15;97112.84;;;-5.63;66.17
20027;BME280;10174;42.688;23.344;2023-02-10T07:55:41;96991.25;;;-6.51;65.70
20027;BME280;10174;42.688;23.344;2023-02-10T07:58:07;97109.38;;;-5.98;66.12
20027;BME280;10174;42.688;23.344;2023-02-10T08:00:33;97127.94;;;-5.67;66.23
20027;BME280;10174;42.688;23.344;2023-02-10T08:02:59;97132.47;;;-5.58;65.54
20027;BME280;10174;42.688;23.344;2023-02-10T08:05:24;97125.09;;;-5.64;65.16
20027;BME280;10174;42.688;23.344;2023-02-10T08:07:51;97099.72;;;-5.86;65.58
20027;BME280;10174;42.688;23.344;2023-02-10T08:10:17;96999.81;;;-6.49;65.18
20027;BME280;10174;42.688;23.344;2023-02-10T08:12:43;97122.47;;;-5.64;65.03
20027;BME280;10174;42.688;23.344;2023-02-10T08:15:09;97119.66;;;-5.49;64.46
20027;BME280;10174;42.688;23.344;2023-02-10T08:17:34;97095.81;;;-5.58;64.46
20027;BME280;10174;42.688;23.344;2023-02-10T08:20:00;97099.16;;;-5.56;64.05
20027;BME280;10174;42.688;23.344;2023-02-10T08:22:25;97108.22;;;-5.37;64.50
20027;BME280;10174;42.688;23.344;2023-02-10T08:24:51;97093.88;;;-5.33;64.15
20027;BME280;10174;42.688;23.344;2023-02-10T08:27:16;97087.25;;;-5.37;63.16
20027;BME280;10174;42.688;23.344;2023-02-10T08:29:42;97097.72;;;-5.37;63.57
20027;BME280;10174;42.688;23.344;2023-02-10T08:32:07;97114.50;;;-5.17;63.61
20027;BME280;10174;42.688;23.344;2023-02-10T08:34:33;97112.22;;;-4.99;63.02
20027;BME280;10174;42.688;23.344;2023-02-10T08:36:59;96973.16;;;-5.64;62.74
20027;BME280;10174;42.688;23.344;2023-02-10T08:39:24;97099.19;;;-4.78;61.93
20027;BME280;10174;42.688;23.344;2023-02-10T08:41:50;97022.53;;;-5.25;61.68
20027;BME280;10174;42.688;23.344;2023-02-10T08:44:15;97095.81;;;-4.69;61.17
20027;BME280;10174;42.688;23.344;2023-02-10T08:46:41;97108.25;;;-4.50;60.77
20027;BME280;10174;42.688;23.344;2023-02-10T08:49:07;97031.59;;;-4.86;60.37
20027;BME280;10174;42.688;23.344;2023-02-10T08:51:32;97111.06;;;-4.41;60.18
20027;BME280;10174;42.688;23.344;2023-02-10T08:54:01;97101.75;;;-4.34;60.34
20027;BME280;10174;42.688;23.344;2023-02-10T08:56:27;97104.72;;;-4.06;60.04
20027;BME280;10174;42.688;23.344;2023-02-10T08:58:52;97100.38;;;-3.96;59.02
20027;BME280;10174;42.688;23.344;2023-02-10T09:01:20;97067.44;;;-4.00;58.53
20027;BME280;10174;42.688;23.344;2023-02-10T09:03:47;97037.47;;;-4.19;58.85
20027;BME280;10174;42.688;23.344;2023-02-10T09:06:21;97084.97;;;-3.80;58.40
20027;BME280;10174;42.688;23.344;2023-02-10T09:08:47;97076.59;;;-3.73;58.45
20027;BME280;10174;42.688;23.344;2023-02-10T09:11:14;97082.59;;;-3.62;57.89
20027;BME280;10174;42.688;23.344;2023-02-10T09:13:40;97023.78;;;-4.01;57.63
20027;BME280;10174;42.688;23.344;2023-02-10T09:16:06;96976.00;;;-4.16;57.44
20027;BME280;10174;42.688;23.344;2023-02-10T09:18:31;97086.00;;;-3.40;57.60
20027;BME280;10174;42.688;23.344;2023-02-10T09:21:00;97083.81;;;-3.35;57.00
20027;BME280;10174;42.688;23.344;2023-02-10T09:23:26;97074.34;;;-3.07;56.09
20027;BME280;10174;42.688;23.344;2023-02-10T09:25:56;97072.13;;;-3.01;56.22
20027;BME280;10174;42.688;23.344;2023-02-10T09:28:22;97065.66;;;-2.97;56.12
20027;BME280;10174;42.688;23.344;2023-02-10T09:30:48;97051.13;;;-2.82;55.53
20027;BME280;10174;42.688;23.344;2023-02-10T09:33:14;97071.78;;;-2.67;55.62
20027;BME280;10174;42.688;23.344;2023-02-10T09:35:39;97069.13;;;-2.67;55.28
20027;BME280;10174;42.688;23.344;2023-02-10T09:38:06;97053.22;;;-2.56;54.89
20027;BME280;10174;42.688;23.344;2023-02-10T09:40:34;97043.09;;;-2.71;54.77
20027;BME280;10174;42.688;23.344;2023-02-10T09:45:35;97059.03;;;-2.82;54.66
20027;BME280;10174;42.688;23.344;2023-02-10T09:51:11;97066.41;;;-2.56;54.04
20027;BME280;10174;42.688;23.344;2023-02-10T09:53:40;97053.63;;;-2.51;54.23
20027;BME280;10174;42.688;23.344;2023-02-10T09:56:11;97036.88;;;-2.50;54.05
20027;BME280;10174;42.688;23.344;2023-02-10T09:58:44;97026.47;;;-2.42;54.09
20027;BME280;10174;42.688;23.344;2023-02-10T10:01:26;97054.00;;;-1.97;53.03
20027;BME280;10174;42.688;23.344;2023-02-10T10:03:58;97014.28;;;-1.76;52.48
20027;BME280;10174;42.688;23.344;2023-02-10T10:06:32;97040.50;;;-1.37;51.26
20027;BME280;10174;42.688;23.344;2023-02-10T10:09:00;97019.59;;;-1.20;50.39
20027;BME280;10174;42.688;23.344;2023-02-10T10:14:00;96999.41;;;1.49;44.67
20027;BME280;10174;42.688;23.344;2023-02-10T10:19:14;97020.03;;;5.85;35.13
20027;BME280;10174;42.688;23.344;2023-02-10T10:21:51;96995.97;;;6.29;33.60
20027;BME280;10174;42.688;23.344;2023-02-10T10:29:54;97006.13;;;7.23;31.61
20027;BME280;10174;42.688;23.344;2023-02-10T10:32:32;96986.41;;;7.31;31.91
20027;BME280;10174;42.688;23.344;2023-02-10T10:35:01;96986.59;;;9.35;29.69
20027;BME280;10174;42.688;23.344;2023-02-10T10:37:27;96985.88;;;8.09;30.53
20027;BME280;10174;42.688;23.344;2023-02-10T10:39:56;96971.84;;;7.47;31.18
20027;BME280;10174;42.688;23.344;2023-02-10T10:42:44;96867.53;;;7.47;29.74
20027;BME280;10174;42.688;23.344;2023-02-10T10:45:22;96908.34;;;8.61;29.44
20027;BME280;10174;42.688;23.344;2023-02-10T10:48:00;96894.09;;;6.67;30.78
20027;BME280;10174;42.688;23.344;2023-02-10T10:50:29;96909.09;;;6.68;31.45
20027;BME280;10174;42.688;23.344;2023-02-10T10:52:55;96966.13;;;9.79;28.46
20027;BME280;10174;42.688;23.344;2023-02-10T10:55:24;96965.91;;;10.06;27.73
20027;BME280;10174;42.688;23.344;2023-02-10T10:57:52;96961.09;;;8.74;29.13
20027;BME280;10174;42.688;23.344;2023-02-10T11:00:19;96957.25;;;10.29;27.65
20027;BME280;10174;42.688;23.344;2023-02-10T11:03:00;96843.53;;;8.26;28.66
20027;BME280;10174;42.688;23.344;2023-02-10T11:05:32;96896.16;;;9.74;27.54
20027;BME280;10174;42.688;23.344;2023-02-10T11:07:59;96929.50;;;9.60;27.82
20027;BME280;10174;42.688;23.344;2023-02-10T11:13:19;96950.25;;;9.07;28.40
20027;BME280;10174;42.688;23.344;2023-02-10T11:15:46;96832.13;;;7.45;30.05
20027;BME280;10174;42.688;23.344;2023-02-10T11:18:20;96944.28;;;7.93;30.14
20027;BME280;10174;42.688;23.344;2023-02-10T11:21:01;96941.00;;;9.35;28.37
20027;BME280;10174;42.688;23.344;2023-02-10T11:23:28;96865.59;;;8.86;28.21
20027;BME280;10174;42.688;23.344;2023-02-10T11:26:03;96930.94;;;7.66;29.64
20027;BME280;10174;42.688;23.344;2023-02-10T11:28:32;96831.66;;;6.19;31.07
20027;BME280;10174;42.688;23.344;2023-02-10T11:31:04;96807.22;;;5.52;31.75
20027;BME280;10174;42.688;23.344;2023-02-10T11:33:32;96931.50;;;6.32;31.92
20027;BME280;10174;42.688;23.344;2023-02-10T11:36:04;96917.06;;;6.19;31.90
20027;BME280;10174;42.688;23.344;2023-02-10T11:38:31;96886.25;;;7.74;29.90
20027;BME280;10174;42.688;23.344;2023-02-10T11:41:01;96912.81;;;7.69;29.50
20027;BME280;10174;42.688;23.344;2023-02-10T11:43:34;96919.59;;;7.91;29.36
20027;BME280;10174;42.688;23.344;2023-02-10T11:46:03;96912.19;;;7.66;29.68
20027;BME280;10174;42.688;23.344;2023-02-10T11:48:29;96764.88;;;6.06;30.54
20027;BME280;10174;42.688;23.344;2023-02-10T11:51:06;96895.28;;;6.57;31.58
20027;BME280;10174;42.688;23.344;2023-02-10T11:53:39;96916.28;;;7.49;29.95
20027;BME280;10174;42.688;23.344;2023-02-10T11:59:35;96897.91;;;8.46;28.35
20027;BME280;10174;42.688;23.344;2023-02-10T12:02:22;96897.16;;;7.59;29.37
20027;BME280;10174;42.688;23.344;2023-02-10T12:10:11;96881.91;;;9.17;27.23
20027;BME280;10174;42.688;23.344;2023-02-10T12:26:13;96880.19;;;8.38;27.93
20027;BME280;10174;42.688;23.344;2023-02-10T12:29:02;96861.28;;;9.17;27.31
20027;BME280;10174;42.688;23.344;2023-02-10T12:34:38;96690.19;;;7.53;28.33
20027;BME280;10174;42.688;23.344;2023-02-10T12:45:47;96852.28;;;7.88;29.46
20027;BME280;10174;42.688;23.344;2023-02-10T12:48:28;96846.50;;;7.97;29.45
20027;BME280;10174;42.688;23.344;2023-02-10T12:53:38;96734.59;;;6.47;30.57
20027;BME280;10174;42.688;23.344;2023-02-10T12:56:23;96840.34;;;6.97;30.86
20027;BME280;10174;42.688;23.344;2023-02-10T12:59:28;96750.72;;;7.14;29.99
20027;BME280;10174;42.688;23.344;2023-02-10T13:02:03;96779.47;;;7.39;29.49
20027;BME280;10174;42.688;23.344;2023-02-10T13:04:38;96773.03;;;7.80;28.50
20027;BME280;10174;42.688;23.344;2023-02-10T13:12:41;96766.28;;;7.57;28.72
20027;BME280;10174;42.688;23.344;2023-02-10T13:15:15;96838.72;;;7.49;29.53
20027;BME280;10174;42.688;23.344;2023-02-10T13:17:45;96718.03;;;5.97;30.59
20027;BME280;10174;42.688;23.344;2023-02-10T13:34:22;96842.56;;;5.11;33.21
20027;BME280;10174;42.688;23.344;2023-02-10T13:39:57;96850.44;;;4.40;34.47
20027;BME280;10174;42.688;23.344;2023-02-10T13:42:37;96848.16;;;3.62;36.53
20027;BME280;10174;42.688;23.344;2023-02-10T13:47:33;96839.81;;;3.65;36.29
20027;BME280;10174;42.688;23.344;2023-02-10T13:50:02;96712.28;;;2.97;36.41
20027;BME280;10174;42.688;23.344;2023-02-10T13:52:31;96804.13;;;3.45;36.50
20027;BME280;10174;42.688;23.344;2023-02-10T13:55:37;96834.44;;;3.35;36.90
20027;BME280;10174;42.688;23.344;2023-02-10T14:00:30;96836.50;;;3.48;36.85
20027;BME280;10174;42.688;23.344;2023-02-10T14:05:59;96840.78;;;3.49;38.11
20027;BME280;10174;42.688;23.344;2023-02-10T14:08:42;96842.38;;;3.44;38.44
20027;BME280;10174;42.688;23.344;2023-02-10T14:13:41;96834.03;;;3.24;38.45
20027;BME280;10174;42.688;23.344;2023-02-10T14:16:36;96808.47;;;3.08;38.52
20027;BME280;10174;42.688;23.344;2023-02-10T14:19:23;96723.94;;;2.58;39.12
20027;BME280;10174;42.688;23.344;2023-02-10T14:21:49;96724.41;;;2.39;39.59
20027;BME280;10174;42.688;23.344;2023-02-10T14:24:22;96708.84;;;2.36;39.41
20027;BME280;10174;42.688;23.344;2023-02-10T14:26:50;96838.56;;;3.00;39.63
20027;BME280;10174;42.688;23.344;2023-02-10T14:29:19;96840.47;;;2.91;40.13
20027;BME280;10174;42.688;23.344;2023-02-10T14:31:49;96830.31;;;3.18;40.44
20027;BME280;10174;42.688;23.344;2023-02-10T14:34:22;96800.03;;;2.81;40.85
20027;BME280;10174;42.688;23.344;2023-02-10T14:36:57;96812.97;;;3.07;40.79
20027;BME280;10174;42.688;23.344;2023-02-10T14:39:25;96760.22;;;2.58;41.20
20027;BME280;10174;42.688;23.344;2023-02-10T14:41:53;96826.41;;;3.06;41.03
20027;BME280;10174;42.688;23.344;2023-02-10T14:44:40;96708.94;;;2.42;41.00
20027;BME280;10174;42.688;23.344;2023-02-10T14:47:19;96809.78;;;3.12;40.54
20027;BME280;10174;42.688;23.344;2023-02-10T14:49:50;96812.47;;;3.03;41.03
20027;BME280;10174;42.688;23.344;2023-02-10T14:52:36;96804.75;;;2.94;42.20
20027;BME280;10174;42.688;23.344;2023-02-10T14:55:34;96823.50;;;3.15;42.07
20027;BME280;10174;42.688;23.344;2023-02-10T15:00:31;96677.47;;;2.16;42.35
20027;BME280;10174;42.688;23.344;2023-02-10T15:02:59;96821.75;;;3.08;42.50